sensor_id;sensor_type;location;lat;lon;timestamp;P1;durP1;ratioP1;P2;durP2;ratioP2
8425;SDS011;4250;50.006;8.286;2022-07-29T00:00:56;4.00;;;1.50;;
8425;SDS011;4250;50.006;8.286;2022-07-29T00:03:21;5.07;;;1.90;;
8425;SDS011;4250;50.006;8.286;2022-07-29T00:05:47;3.77;;;1.63;;
8425;SDS011;4250;50.006;8.286;2022-07-29T00:08:12;3.20;;;1.90;;
8425;SDS011;4250;50.006;8.286;2022-07-29T00:10:37;2.40;;;1.70;;
8425;SDS011;4250;50.006;8.286;2022-07-29T00:13:03;3.87;;;1.70;;
8425;SDS011;4250;50.006;8.286;2022-07-29T00:15:28;2.60;;;1.57;;
8425;SDS011;4250;50.006;8.286;2022-07-29T00:17:54;5.83;;;2.07;;
8425;SDS011;4250;50.006;8.286;2022-07-29T00:20:19;4.07;;;1.83;;
8425;SDS011;4250;50.006;8.286;2022-07-29T00:22:45;8.07;;;2.00;;
8425;SDS011;4250;50.006;8.286;2022-07-29T00:25:11;5.53;;;2.03;;
8425;SDS011;4250;50.006;8.286;2022-07-29T00:27:37;4.40;;;1.87;;
8425;SDS011;4250;50.006;8.286;2022-07-29T00:30:03;5.00;;;1.87;;
8425;SDS011;4250;50.006;8.286;2022-07-29T00:32:28;4.30;;;2.17;;
8425;SDS011;4250;50.006;8.286;2022-07-29T00:34:54;4.63;;;2.17;;
8425;SDS011;4250;50.006;8.286;2022-07-29T00:37:38;4.87;;;2.13;;
8425;SDS011;4250;50.006;8.286;2022-07-29T00:40:03;3.60;;;2.07;;
8425;SDS011;4250;50.006;8.286;2022-07-29T00:42:29;3.37;;;2.00;;
8425;SDS011;4250;50.006;8.286;2022-07-29T00:44:54;4.00;;;2.10;;
8425;SDS011;4250;50.006;8.286;2022-07-29T00:47:20;5.00;;;2.30;;
8425;SDS011;4250;50.006;8.286;2022-07-29T00:49:45;4.73;;;2.20;;
8425;SDS011;4250;50.006;8.286;2022-07-29T00:52:11;4.60;;;1.97;;
8425;SDS011;4250;50.006;8.286;2022-07-29T00:54:37;5.67;;;2.20;;
8425;SDS011;4250;50.006;8.286;2022-07-29T00:57:04;3.83;;;2.10;;
8425;SDS011;4250;50.006;8.286;2022-07-29T00:59:31;8.03;;;1.83;;
8425;SDS011;4250;50.006;8.286;2022-07-29T01:01:56;6.40;;;2.20;;
8425;SDS011;4250;50.006;8.286;2022-07-29T01:04:21;5.30;;;2.20;;
8425;SDS011;4250;50.006;8.286;2022-07-29T01:06:47;6.47;;;2.97;;
8425;SDS011;4250;50.006;8.286;2022-07-29T01:09:14;4.40;;;2.33;;
8425;SDS011;4250;50.006;8.286;2022-07-29T01:11:40;4.67;;;2.37;;
8425;SDS011;4250;50.006;8.286;2022-07-29T01:14:06;6.97;;;2.43;;
8425;SDS011;4250;50.006;8.286;2022-07-29T01:16:32;4.50;;;2.27;;
8425;SDS011;4250;50.006;8.286;2022-07-29T01:19:00;9.80;;;3.00;;
8425;SDS011;4250;50.006;8.286;2022-07-29T01:21:51;9.30;;;3.00;;
8425;SDS011;4250;50.006;8.286;2022-07-29T01:26:57;11.03;;;2.77;;
8425;SDS011;4250;50.006;8.286;2022-07-29T01:29:26;7.13;;;3.57;;
8425;SDS011;4250;50.006;8.286;2022-07-29T01:34:35;7.23;;;4.07;;
8425;SDS011;4250;50.006;8.286;2022-07-29T01:37:18;8.50;;;4.80;;
8425;SDS011;4250;50.006;8.286;2022-07-29T01:39:46;7.33;;;4.67;;
8425;SDS011;4250;50.006;8.286;2022-07-29T01:42:20;8.53;;;4.17;;
8425;SDS011;4250;50.006;8.286;2022-07-29T01:47:43;11.90;;;5.57;;
8425;SDS011;4250;50.006;8.286;2022-07-29T01:50:11;10.77;;;6.50;;
8425;SDS011;4250;50.006;8.286;2022-07-29T01:52:43;8.77;;;4.97;;
8425;SDS011;4250;50.006;8.286;2022-07-29T01:55:13;8.27;;;5.33;;
8425;SDS011;4250;50.006;8.286;2022-07-29T01:57:39;10.50;;;5.30;;
8425;SDS011;4250;50.006;8.286;2022-07-29T02:00:08;8.17;;;5.57;;
8425;SDS011;4250;50.006;8.286;2022-07-29T02:02:37;5.43;;;4.07;;
8425;SDS011;4250;50.006;8.286;2022-07-29T02:05:04;6.97;;;4.30;;
8425;SDS011;4250;50.006;8.286;2022-07-29T02:07:31;7.93;;;4.30;;
8425;SDS011;4250;50.006;8.286;2022-07-29T02:09:58;8.00;;;3.90;;
8425;SDS011;4250;50.006;8.286;2022-07-29T02:12:23;6.93;;;3.97;;
8425;SDS011;4250;50.006;8.286;2022-07-29T02:14:51;6.40;;;4.53;;
8425;SDS011;4250;50.006;8.286;2022-07-29T02:17:22;8.70;;;4.43;;
8425;SDS011;4250;50.006;8.286;2022-07-29T02:19:50;9.23;;;4.07;;
8425;SDS011;4250;50.006;8.286;2022-07-29T02:22:17;7.53;;;4.73;;
8425;SDS011;4250;50.006;8.286;2022-07-29T02:24:43;7.40;;;4.70;;
8425;SDS011;4250;50.006;8.286;2022-07-29T02:27:09;8.43;;;3.80;;
8425;SDS011;4250;50.006;8.286;2022-07-29T02:29:35;7.33;;;4.37;;
8425;SDS011;4250;50.006;8.286;2022-07-29T02:32:01;5.20;;;4.20;;
8425;SDS011;4250;50.006;8.286;2022-07-29T02:34:28;8.30;;;4.60;;
8425;SDS011;4250;50.006;8.286;2022-07-29T02:36:54;7.37;;;5.07;;
8425;SDS011;4250;50.006;8.286;2022-07-29T02:39:20;8.27;;;5.00;;
8425;SDS011;4250;50.006;8.286;2022-07-29T02:41:47;8.17;;;5.03;;
8425;SDS011;4250;50.006;8.286;2022-07-29T02:44:15;7.83;;;5.27;;
8425;SDS011;4250;50.006;8.286;2022-07-29T02:46:44;7.63;;;5.13;;
8425;SDS011;4250;50.006;8.286;2022-07-29T02:51:46;7.70;;;5.20;;
8425;SDS011;4250;50.006;8.286;2022-07-29T02:57:04;6.87;;;5.00;;
8425;SDS011;4250;50.006;8.286;2022-07-29T02:59:34;5.93;;;5.20;;
8425;SDS011;4250;50.006;8.286;2022-07-29T03:02:01;7.37;;;5.57;;
8425;SDS011;4250;50.006;8.286;2022-07-29T03:04:27;7.80;;;5.10;;
8425;SDS011;4250;50.006;8.286;2022-07-29T03:06:54;5.67;;;4.93;;
8425;SDS011;4250;50.006;8.286;2022-07-29T03:09:20;6.80;;;4.70;;
8425;SDS011;4250;50.006;8.286;2022-07-29T03:11:46;5.67;;;4.70;;
8425;SDS011;4250;50.006;8.286;2022-07-29T03:14:12;7.87;;;4.77;;
8425;SDS011;4250;50.006;8.286;2022-07-29T03:16:38;8.20;;;4.37;;
8425;SDS011;4250;50.006;8.286;2022-07-29T03:19:03;6.00;;;4.33;;
8425;SDS011;4250;50.006;8.286;2022-07-29T03:21:29;7.20;;;4.37;;
8425;SDS011;4250;50.006;8.286;2022-07-29T03:23:55;6.37;;;4.47;;
8425;SDS011;4250;50.006;8.286;2022-07-29T03:26:20;5.90;;;4.20;;
8425;SDS011;4250;50.006;8.286;2022-07-29T03:28:45;6.53;;;4.80;;
8425;SDS011;4250;50.006;8.286;2022-07-29T03:31:11;6.63;;;4.63;;
8425;SDS011;4250;50.006;8.286;2022-07-29T03:33:36;9.20;;;4.93;;
8425;SDS011;4250;50.006;8.286;2022-07-29T03:36:01;10.57;;;4.80;;
8425;SDS011;4250;50.006;8.286;2022-07-29T03:38:27;6.83;;;4.40;;
8425;SDS011;4250;50.006;8.286;2022-07-29T03:40:56;6.60;;;4.33;;
8425;SDS011;4250;50.006;8.286;2022-07-29T03:43:26;7.60;;;4.33;;
8425;SDS011;4250;50.006;8.286;2022-07-29T03:45:55;7.50;;;4.23;;
8425;SDS011;4250;50.006;8.286;2022-07-29T03:48:22;5.97;;;4.53;;
8425;SDS011;4250;50.006;8.286;2022-07-29T03:50:49;9.80;;;5.33;;
8425;SDS011;4250;50.006;8.286;2022-07-29T03:53:15;8.13;;;4.83;;
8425;SDS011;4250;50.006;8.286;2022-07-29T03:55:41;7.77;;;4.83;;
8425;SDS011;4250;50.006;8.286;2022-07-29T03:58:08;9.67;;;4.97;;
8425;SDS011;4250;50.006;8.286;2022-07-29T04:00:35;6.43;;;4.70;;
8425;SDS011;4250;50.006;8.286;2022-07-29T04:03:02;8.77;;;4.40;;
8425;SDS011;4250;50.006;8.286;2022-07-29T04:05:28;9.13;;;4.07;;
8425;SDS011;4250;50.006;8.286;2022-07-29T04:07:54;8.77;;;4.40;;
8425;SDS011;4250;50.006;8.286;2022-07-29T04:10:19;9.33;;;4.73;;
8425;SDS011;4250;50.006;8.286;2022-07-29T04:12:45;6.93;;;5.13;;
8425;SDS011;4250;50.006;8.286;2022-07-29T04:15:10;7.07;;;5.03;;
8425;SDS011;4250;50.006;8.286;2022-07-29T04:17:36;9.67;;;5.23;;
8425;SDS011;4250;50.006;8.286;2022-07-29T04:20:02;6.23;;;4.83;;
8425;SDS011;4250;50.006;8.286;2022-07-29T04:22:28;8.63;;;4.67;;
8425;SDS011;4250;50.006;8.286;2022-07-29T04:24:54;5.37;;;4.87;;
8425;SDS011;4250;50.006;8.286;2022-07-29T04:27:19;7.33;;;4.40;;
8425;SDS011;4250;50.006;8.286;2022-07-29T04:29:44;6.77;;;4.00;;
8425;SDS011;4250;50.006;8.286;2022-07-29T04:32:10;6.00;;;4.63;;
8425;SDS011;4250;50.006;8.286;2022-07-29T04:34:35;6.30;;;4.03;;
8425;SDS011;4250;50.006;8.286;2022-07-29T04:37:01;4.13;;;3.60;;
8425;SDS011;4250;50.006;8.286;2022-07-29T04:39:26;5.77;;;4.00;;
8425;SDS011;4250;50.006;8.286;2022-07-29T04:41:51;5.43;;;4.43;;
8425;SDS011;4250;50.006;8.286;2022-07-29T04:44:17;7.37;;;4.33;;
8425;SDS011;4250;50.006;8.286;2022-07-29T04:46:42;7.87;;;4.87;;
8425;SDS011;4250;50.006;8.286;2022-07-29T04:49:07;8.43;;;5.03;;
8425;SDS011;4250;50.006;8.286;2022-07-29T04:51:33;7.63;;;5.20;;
8425;SDS011;4250;50.006;8.286;2022-07-29T04:53:59;8.57;;;4.90;;
8425;SDS011;4250;50.006;8.286;2022-07-29T04:56:24;7.97;;;4.77;;
8425;SDS011;4250;50.006;8.286;2022-07-29T04:58:49;7.53;;;4.93;;
8425;SDS011;4250;50.006;8.286;2022-07-29T05:01:15;11.83;;;5.43;;
8425;SDS011;4250;50.006;8.286;2022-07-29T05:03:40;9.77;;;5.20;;
8425;SDS011;4250;50.006;8.286;2022-07-29T05:06:06;10.00;;;5.47;;
8425;SDS011;4250;50.006;8.286;2022-07-29T05:08:31;8.57;;;5.33;;
8425;SDS011;4250;50.006;8.286;2022-07-29T05:10:56;11.00;;;6.07;;
8425;SDS011;4250;50.006;8.286;2022-07-29T05:13:22;11.67;;;6.23;;
8425;SDS011;4250;50.006;8.286;2022-07-29T05:15:47;10.33;;;5.80;;
8425;SDS011;4250;50.006;8.286;2022-07-29T05:18:13;13.30;;;5.70;;
8425;SDS011;4250;50.006;8.286;2022-07-29T05:20:39;8.20;;;5.13;;
8425;SDS011;4250;50.006;8.286;2022-07-29T05:23:04;5.47;;;4.73;;
8425;SDS011;4250;50.006;8.286;2022-07-29T05:25:29;9.67;;;5.03;;
8425;SDS011;4250;50.006;8.286;2022-07-29T05:27:55;8.90;;;5.33;;
8425;SDS011;4250;50.006;8.286;2022-07-29T05:30:20;8.70;;;5.00;;
8425;SDS011;4250;50.006;8.286;2022-07-29T05:32:46;7.50;;;4.73;;
8425;SDS011;4250;50.006;8.286;2022-07-29T05:35:12;8.00;;;4.90;;
8425;SDS011;4250;50.006;8.286;2022-07-29T05:37:38;5.80;;;4.30;;
8425;SDS011;4250;50.006;8.286;2022-07-29T05:40:04;7.37;;;4.70;;
8425;SDS011;4250;50.006;8.286;2022-07-29T05:42:30;8.60;;;4.87;;
8425;SDS011;4250;50.006;8.286;2022-07-29T05:44:55;7.33;;;4.67;;
8425;SDS011;4250;50.006;8.286;2022-07-29T05:47:21;9.10;;;4.50;;
8425;SDS011;4250;50.006;8.286;2022-07-29T05:49:47;9.53;;;4.40;;
8425;SDS011;4250;50.006;8.286;2022-07-29T05:52:13;8.00;;;4.30;;
8425;SDS011;4250;50.006;8.286;2022-07-29T05:54:38;8.20;;;4.67;;
8425;SDS011;4250;50.006;8.286;2022-07-29T05:57:04;6.43;;;4.40;;
8425;SDS011;4250;50.006;8.286;2022-07-29T05:59:30;7.03;;;4.10;;
8425;SDS011;4250;50.006;8.286;2022-07-29T06:01:56;6.53;;;4.57;;
8425;SDS011;4250;50.006;8.286;2022-07-29T06:04:22;6.60;;;4.13;;
8425;SDS011;4250;50.006;8.286;2022-07-29T06:06:47;7.87;;;4.60;;
8425;SDS011;4250;50.006;8.286;2022-07-29T06:09:12;7.67;;;4.10;;
8425;SDS011;4250;50.006;8.286;2022-07-29T06:11:38;7.57;;;4.07;;
8425;SDS011;4250;50.006;8.286;2022-07-29T06:14:04;8.17;;;4.20;;
8425;SDS011;4250;50.006;8.286;2022-07-29T06:16:29;5.33;;;3.50;;
8425;SDS011;4250;50.006;8.286;2022-07-29T06:18:55;7.63;;;3.60;;
8425;SDS011;4250;50.006;8.286;2022-07-29T06:21:20;6.83;;;3.80;;
8425;SDS011;4250;50.006;8.286;2022-07-29T06:23:45;9.27;;;4.63;;
8425;SDS011;4250;50.006;8.286;2022-07-29T06:26:11;7.20;;;3.87;;
8425;SDS011;4250;50.006;8.286;2022-07-29T06:28:36;9.83;;;4.07;;
8425;SDS011;4250;50.006;8.286;2022-07-29T06:31:02;7.13;;;3.30;;
8425;SDS011;4250;50.006;8.286;2022-07-29T06:33:27;9.07;;;4.07;;
8425;SDS011;4250;50.006;8.286;2022-07-29T06:35:52;6.67;;;3.50;;
8425;SDS011;4250;50.006;8.286;2022-07-29T06:38:18;6.43;;;3.40;;
8425;SDS011;4250;50.006;8.286;2022-07-29T06:40:44;6.50;;;3.33;;
8425;SDS011;4250;50.006;8.286;2022-07-29T06:43:26;3.93;;;3.03;;
8425;SDS011;4250;50.006;8.286;2022-07-29T06:46:02;7.63;;;2.80;;
8425;SDS011;4250;50.006;8.286;2022-07-29T06:48:30;8.53;;;2.97;;
8425;SDS011;4250;50.006;8.286;2022-07-29T06:50:56;9.93;;;3.10;;
8425;SDS011;4250;50.006;8.286;2022-07-29T06:53:22;4.20;;;2.67;;
8425;SDS011;4250;50.006;8.286;2022-07-29T06:55:48;7.70;;;2.87;;
8425;SDS011;4250;50.006;8.286;2022-07-29T06:58:13;6.47;;;3.03;;
8425;SDS011;4250;50.006;8.286;2022-07-29T07:00:41;6.03;;;3.10;;
8425;SDS011;4250;50.006;8.286;2022-07-29T07:03:07;6.13;;;2.73;;
8425;SDS011;4250;50.006;8.286;2022-07-29T07:05:35;3.30;;;2.60;;
8425;SDS011;4250;50.006;8.286;2022-07-29T07:08:01;9.63;;;3.17;;
8425;SDS011;4250;50.006;8.286;2022-07-29T07:10:29;4.03;;;2.70;;
8425;SDS011;4250;50.006;8.286;2022-07-29T07:12:55;9.17;;;2.80;;
8425;SDS011;4250;50.006;8.286;2022-07-29T07:15:20;4.27;;;2.67;;
8425;SDS011;4250;50.006;8.286;2022-07-29T07:17:55;4.70;;;2.63;;
8425;SDS011;4250;50.006;8.286;2022-07-29T07:20:22;9.80;;;3.00;;
8425;SDS011;4250;50.006;8.286;2022-07-29T07:22:47;4.27;;;2.73;;
8425;SDS011;4250;50.006;8.286;2022-07-29T07:25:12;4.23;;;2.67;;
8425;SDS011;4250;50.006;8.286;2022-07-29T07:27:38;7.70;;;3.10;;
8425;SDS011;4250;50.006;8.286;2022-07-29T07:30:04;6.30;;;2.60;;
8425;SDS011;4250;50.006;8.286;2022-07-29T07:32:31;9.00;;;2.80;;
8425;SDS011;4250;50.006;8.286;2022-07-29T07:34:58;7.67;;;2.87;;
8425;SDS011;4250;50.006;8.286;2022-07-29T07:37:24;8.87;;;2.83;;
8425;SDS011;4250;50.006;8.286;2022-07-29T07:39:49;5.17;;;2.53;;
8425;SDS011;4250;50.006;8.286;2022-07-29T07:42:16;6.27;;;2.70;;
8425;SDS011;4250;50.006;8.286;2022-07-29T07:44:42;5.60;;;2.90;;
8425;SDS011;4250;50.006;8.286;2022-07-29T07:47:07;6.93;;;2.77;;
8425;SDS011;4250;50.006;8.286;2022-07-29T07:49:32;3.83;;;2.33;;
8425;SDS011;4250;50.006;8.286;2022-07-29T07:51:58;8.10;;;3.27;;
8425;SDS011;4250;50.006;8.286;2022-07-29T07:54:23;6.33;;;2.90;;
8425;SDS011;4250;50.006;8.286;2022-07-29T07:56:48;4.53;;;2.70;;
8425;SDS011;4250;50.006;8.286;2022-07-29T07:59:14;4.30;;;2.80;;
8425;SDS011;4250;50.006;8.286;2022-07-29T08:01:40;7.90;;;2.97;;
8425;SDS011;4250;50.006;8.286;2022-07-29T08:04:06;6.83;;;2.70;;
8425;SDS011;4250;50.006;8.286;2022-07-29T08:06:32;3.67;;;2.20;;
8425;SDS011;4250;50.006;8.286;2022-07-29T08:08:59;5.83;;;2.50;;
8425;SDS011;4250;50.006;8.286;2022-07-29T08:11:25;3.77;;;2.70;;
8425;SDS011;4250;50.006;8.286;2022-07-29T08:13:50;6.43;;;2.90;;
8425;SDS011;4250;50.006;8.286;2022-07-29T08:16:18;5.27;;;3.07;;
8425;SDS011;4250;50.006;8.286;2022-07-29T08:18:44;7.57;;;2.80;;
8425;SDS011;4250;50.006;8.286;2022-07-29T08:21:10;5.67;;;2.80;;
8425;SDS011;4250;50.006;8.286;2022-07-29T08:23:36;5.97;;;3.03;;
8425;SDS011;4250;50.006;8.286;2022-07-29T08:26:09;7.50;;;3.08;;
8425;SDS011;4250;50.006;8.286;2022-07-29T08:28:38;6.55;;;2.70;;
8425;SDS011;4250;50.006;8.286;2022-07-29T08:31:03;5.47;;;2.80;;
8425;SDS011;4250;50.006;8.286;2022-07-29T08:33:29;3.42;;;3.03;;
8425;SDS011;4250;50.006;8.286;2022-07-29T08:35:57;6.72;;;3.22;;
8425;SDS011;4250;50.006;8.286;2022-07-29T08:38:22;8.32;;;2.92;;
8425;SDS011;4250;50.006;8.286;2022-07-29T08:40:50;4.63;;;2.88;;
8425;SDS011;4250;50.006;8.286;2022-07-29T08:43:22;4.97;;;3.00;;
8425;SDS011;4250;50.006;8.286;2022-07-29T08:45:49;5.28;;;2.50;;
8425;SDS011;4250;50.006;8.286;2022-07-29T08:48:16;3.65;;;2.80;;
8425;SDS011;4250;50.006;8.286;2022-07-29T08:50:46;3.97;;;2.55;;
8425;SDS011;4250;50.006;8.286;2022-07-29T08:53:16;3.42;;;2.60;;
8425;SDS011;4250;50.006;8.286;2022-07-29T08:55:43;7.90;;;2.88;;
8425;SDS011;4250;50.006;8.286;2022-07-29T08:58:09;5.95;;;3.22;;
8425;SDS011;4250;50.006;8.286;2022-07-29T09:00:40;6.47;;;2.60;;
8425;SDS011;4250;50.006;8.286;2022-07-29T09:03:08;5.78;;;2.75;;
8425;SDS011;4250;50.006;8.286;2022-07-29T09:05:36;4.97;;;2.75;;
8425;SDS011;4250;50.006;8.286;2022-07-29T09:08:02;5.93;;;3.20;;
8425;SDS011;4250;50.006;8.286;2022-07-29T09:10:27;8.27;;;3.15;;
8425;SDS011;4250;50.006;8.286;2022-07-29T09:12:56;5.38;;;3.00;;
8425;SDS011;4250;50.006;8.286;2022-07-29T09:15:21;4.93;;;2.78;;
8425;SDS011;4250;50.006;8.286;2022-07-29T09:17:47;6.28;;;2.85;;
8425;SDS011;4250;50.006;8.286;2022-07-29T09:20:15;6.53;;;2.70;;
8425;SDS011;4250;50.006;8.286;2022-07-29T09:22:41;3.70;;;2.63;;
8425;SDS011;4250;50.006;8.286;2022-07-29T09:25:07;5.03;;;2.92;;
8425;SDS011;4250;50.006;8.286;2022-07-29T09:27:33;5.15;;;2.83;;
8425;SDS011;4250;50.006;8.286;2022-07-29T09:30:08;4.63;;;2.90;;
8425;SDS011;4250;50.006;8.286;2022-07-29T09:32:59;7.43;;;3.38;;
8425;SDS011;4250;50.006;8.286;2022-07-29T09:35:26;6.50;;;2.83;;
8425;SDS011;4250;50.006;8.286;2022-07-29T09:37:52;4.80;;;3.10;;
8425;SDS011;4250;50.006;8.286;2022-07-29T09:40:21;4.63;;;2.90;;
8425;SDS011;4250;50.006;8.286;2022-07-29T09:42:48;10.23;;;3.20;;
8425;SDS011;4250;50.006;8.286;2022-07-29T09:45:35;5.95;;;2.85;;
8425;SDS011;4250;50.006;8.286;2022-07-29T09:48:17;11.20;;;3.22;;
8425;SDS011;4250;50.006;8.286;2022-07-29T09:50:47;6.28;;;2.92;;
8425;SDS011;4250;50.006;8.286;2022-07-29T09:53:31;5.57;;;2.80;;
8425;SDS011;4250;50.006;8.286;2022-07-29T09:55:57;5.88;;;3.42;;
8425;SDS011;4250;50.006;8.286;2022-07-29T09:58:23;7.13;;;2.90;;
8425;SDS011;4250;50.006;8.286;2022-07-29T10:00:51;4.88;;;3.03;;
8425;SDS011;4250;50.006;8.286;2022-07-29T10:03:18;4.38;;;3.03;;
8425;SDS011;4250;50.006;8.286;2022-07-29T10:05:44;8.40;;;3.17;;
8425;SDS011;4250;50.006;8.286;2022-07-29T10:08:29;5.95;;;2.97;;
8425;SDS011;4250;50.006;8.286;2022-07-29T10:11:02;7.80;;;3.30;;
8425;SDS011;4250;50.006;8.286;2022-07-29T10:13:34;6.13;;;3.13;;
8425;SDS011;4250;50.006;8.286;2022-07-29T10:15:59;3.30;;;2.83;;
8425;SDS011;4250;50.006;8.286;2022-07-29T10:18:25;4.93;;;2.70;;
8425;SDS011;4250;50.006;8.286;2022-07-29T10:20:51;5.75;;;2.80;;
8425;SDS011;4250;50.006;8.286;2022-07-29T10:23:16;3.70;;;2.70;;
8425;SDS011;4250;50.006;8.286;2022-07-29T10:25:42;5.10;;;2.72;;
8425;SDS011;4250;50.006;8.286;2022-07-29T10:28:07;4.03;;;2.95;;
8425;SDS011;4250;50.006;8.286;2022-07-29T10:30:33;4.53;;;2.80;;
8425;SDS011;4250;50.006;8.286;2022-07-29T10:44:17;5.80;;;2.92;;
8425;SDS011;4250;50.006;8.286;2022-07-29T10:46:44;5.05;;;3.25;;
8425;SDS011;4250;50.006;8.286;2022-07-29T10:49:17;8.85;;;2.92;;
8425;SDS011;4250;50.006;8.286;2022-07-29T10:54:19;6.00;;;2.97;;
8425;SDS011;4250;50.006;8.286;2022-07-29T10:57:10;5.63;;;2.67;;
8425;SDS011;4250;50.006;8.286;2022-07-29T10:59:37;4.03;;;3.08;;
8425;SDS011;4250;50.006;8.286;2022-07-29T11:02:03;5.88;;;3.28;;
8425;SDS011;4250;50.006;8.286;2022-07-29T11:05:07;4.40;;;2.35;;
8425;SDS011;4250;50.006;8.286;2022-07-29T11:07:38;6.00;;;3.03;;
8425;SDS011;4250;50.006;8.286;2022-07-29T11:15:08;5.43;;;3.15;;
8425;SDS011;4250;50.006;8.286;2022-07-29T11:23:22;6.00;;;3.17;;
8425;SDS011;4250;50.006;8.286;2022-07-29T11:31:34;4.13;;;2.83;;
8425;SDS011;4250;50.006;8.286;2022-07-29T11:39:46;4.55;;;3.10;;
8425;SDS011;4250;50.006;8.286;2022-07-29T11:45:26;3.72;;;3.10;;
8425;SDS011;4250;50.006;8.286;2022-07-29T11:47:31;3.80;;;2.70;;
8425;SDS011;4250;50.006;8.286;2022-07-29T11:50:00;5.55;;;2.90;;
8425;SDS011;4250;50.006;8.286;2022-07-29T11:52:33;8.77;;;3.13;;
8425;SDS011;4250;50.006;8.286;2022-07-29T11:55:03;5.07;;;2.63;;
8425;SDS011;4250;50.006;8.286;2022-07-29T11:57:29;5.45;;;2.85;;
8425;SDS011;4250;50.006;8.286;2022-07-29T11:59:55;3.75;;;2.80;;
8425;SDS011;4250;50.006;8.286;2022-07-29T12:02:22;3.40;;;3.03;;
8425;SDS011;4250;50.006;8.286;2022-07-29T12:04:50;6.07;;;3.15;;
8425;SDS011;4250;50.006;8.286;2022-07-29T12:07:26;3.40;;;2.80;;
8425;SDS011;4250;50.006;8.286;2022-07-29T12:09:55;4.40;;;3.08;;
8425;SDS011;4250;50.006;8.286;2022-07-29T12:12:21;7.50;;;3.30;;
8425;SDS011;4250;50.006;8.286;2022-07-29T12:14:46;5.70;;;2.90;;
8425;SDS011;4250;50.006;8.286;2022-07-29T12:17:28;4.18;;;2.97;;
8425;SDS011;4250;50.006;8.286;2022-07-29T12:19:55;3.38;;;2.85;;
8425;SDS011;4250;50.006;8.286;2022-07-29T12:22:26;4.60;;;2.92;;
8425;SDS011;4250;50.006;8.286;2022-07-29T12:25:01;4.88;;;3.00;;
8425;SDS011;4250;50.006;8.286;2022-07-29T12:27:28;3.92;;;2.80;;
8425;SDS011;4250;50.006;8.286;2022-07-29T12:29:57;4.88;;;3.03;;
8425;SDS011;4250;50.006;8.286;2022-07-29T12:32:37;5.90;;;2.92;;
8425;SDS011;4250;50.006;8.286;2022-07-29T12:35:16;4.93;;;2.85;;
8425;SDS011;4250;50.006;8.286;2022-07-29T12:37:45;5.47;;;2.92;;
8425;SDS011;4250;50.006;8.286;2022-07-29T12:40:13;4.45;;;3.00;;
8425;SDS011;4250;50.006;8.286;2022-07-29T12:42:41;3.85;;;2.97;;
8425;SDS011;4250;50.006;8.286;2022-07-29T12:45:07;5.15;;;3.28;;
8425;SDS011;4250;50.006;8.286;2022-07-29T12:47:33;2.92;;;2.63;;
8425;SDS011;4250;50.006;8.286;2022-07-29T12:50:12;3.95;;;3.03;;
8425;SDS011;4250;50.006;8.286;2022-07-29T12:52:42;3.97;;;2.95;;
8425;SDS011;4250;50.006;8.286;2022-07-29T12:55:08;3.38;;;2.85;;
8425;SDS011;4250;50.006;8.286;2022-07-29T12:57:47;8.25;;;3.20;;
8425;SDS011;4250;50.006;8.286;2022-07-29T13:00:14;3.85;;;3.15;;
8425;SDS011;4250;50.006;8.286;2022-07-29T13:02:42;6.20;;;3.50;;
8425;SDS011;4250;50.006;8.286;2022-07-29T13:05:09;3.90;;;2.70;;
8425;SDS011;4250;50.006;8.286;2022-07-29T13:07:35;4.25;;;3.40;;
8425;SDS011;4250;50.006;8.286;2022-07-29T13:10:12;6.75;;;3.80;;
8425;SDS011;4250;50.006;8.286;2022-07-29T13:15:36;4.32;;;3.08;;
8425;SDS011;4250;50.006;8.286;2022-07-29T13:18:03;5.10;;;3.13;;
8425;SDS011;4250;50.006;8.286;2022-07-29T13:20:29;3.70;;;3.10;;
8425;SDS011;4250;50.006;8.286;2022-07-29T13:22:55;5.50;;;2.78;;
8425;SDS011;4250;50.006;8.286;2022-07-29T13:25:28;6.82;;;3.65;;
8425;SDS011;4250;50.006;8.286;2022-07-29T13:27:55;5.00;;;3.22;;
8425;SDS011;4250;50.006;8.286;2022-07-29T13:30:21;8.35;;;3.45;;
8425;SDS011;4250;50.006;8.286;2022-07-29T13:32:47;6.72;;;3.67;;
8425;SDS011;4250;50.006;8.286;2022-07-29T13:35:13;6.30;;;3.13;;
8425;SDS011;4250;50.006;8.286;2022-07-29T13:37:38;4.50;;;3.03;;
8425;SDS011;4250;50.006;8.286;2022-07-29T13:40:05;6.22;;;3.28;;
8425;SDS011;4250;50.006;8.286;2022-07-29T13:42:32;4.90;;;3.10;;
8425;SDS011;4250;50.006;8.286;2022-07-29T13:44:57;7.55;;;3.22;;
8425;SDS011;4250;50.006;8.286;2022-07-29T13:47:23;5.93;;;2.88;;
8425;SDS011;4250;50.006;8.286;2022-07-29T13:49:48;4.97;;;2.88;;
8425;SDS011;4250;50.006;8.286;2022-07-29T13:52:14;7.00;;;3.00;;
8425;SDS011;4250;50.006;8.286;2022-07-29T13:54:40;2.80;;;2.60;;
8425;SDS011;4250;50.006;8.286;2022-07-29T13:57:05;4.95;;;2.65;;
8425;SDS011;4250;50.006;8.286;2022-07-29T13:59:31;4.57;;;2.50;;
8425;SDS011;4250;50.006;8.286;2022-07-29T14:01:56;5.05;;;3.17;;
8425;SDS011;4250;50.006;8.286;2022-07-29T14:04:22;7.95;;;3.00;;
8425;SDS011;4250;50.006;8.286;2022-07-29T14:06:50;3.40;;;3.10;;
8425;SDS011;4250;50.006;8.286;2022-07-29T14:09:16;6.93;;;3.17;;
8425;SDS011;4250;50.006;8.286;2022-07-29T14:11:41;3.75;;;3.08;;
8425;SDS011;4250;50.006;8.286;2022-07-29T14:14:06;5.57;;;2.75;;
8425;SDS011;4250;50.006;8.286;2022-07-29T14:16:32;6.78;;;2.83;;
8425;SDS011;4250;50.006;8.286;2022-07-29T14:18:57;6.20;;;3.28;;
8425;SDS011;4250;50.006;8.286;2022-07-29T14:21:23;5.25;;;2.90;;
8425;SDS011;4250;50.006;8.286;2022-07-29T14:23:48;5.07;;;3.60;;
8425;SDS011;4250;50.006;8.286;2022-07-29T14:26:14;3.03;;;2.72;;
8425;SDS011;4250;50.006;8.286;2022-07-29T14:28:39;3.97;;;2.90;;
8425;SDS011;4250;50.006;8.286;2022-07-29T14:31:04;4.53;;;3.50;;
8425;SDS011;4250;50.006;8.286;2022-07-29T14:33:30;4.90;;;3.20;;
8425;SDS011;4250;50.006;8.286;2022-07-29T14:35:55;6.05;;;3.33;;
8425;SDS011;4250;50.006;8.286;2022-07-29T14:38:20;5.18;;;3.28;;
8425;SDS011;4250;50.006;8.286;2022-07-29T14:40:46;4.72;;;2.90;;
8425;SDS011;4250;50.006;8.286;2022-07-29T14:43:12;5.10;;;2.90;;
8425;SDS011;4250;50.006;8.286;2022-07-29T14:45:38;3.92;;;3.20;;
8425;SDS011;4250;50.006;8.286;2022-07-29T14:48:04;5.65;;;3.35;;
8425;SDS011;4250;50.006;8.286;2022-07-29T14:50:29;6.70;;;3.63;;
8425;SDS011;4250;50.006;8.286;2022-07-29T14:52:55;4.97;;;3.28;;
8425;SDS011;4250;50.006;8.286;2022-07-29T14:55:20;4.00;;;3.03;;
8425;SDS011;4250;50.006;8.286;2022-07-29T14:57:46;4.90;;;3.40;;
8425;SDS011;4250;50.006;8.286;2022-07-29T15:00:12;4.82;;;3.47;;
8425;SDS011;4250;50.006;8.286;2022-07-29T15:02:38;5.93;;;3.33;;
8425;SDS011;4250;50.006;8.286;2022-07-29T15:05:03;6.32;;;3.70;;
8425;SDS011;4250;50.006;8.286;2022-07-29T15:07:29;4.78;;;3.00;;
8425;SDS011;4250;50.006;8.286;2022-07-29T15:09:54;4.28;;;2.90;;
8425;SDS011;4250;50.006;8.286;2022-07-29T15:12:20;4.20;;;3.25;;
8425;SDS011;4250;50.006;8.286;2022-07-29T15:14:45;4.07;;;2.90;;
8425;SDS011;4250;50.006;8.286;2022-07-29T15:17:11;6.78;;;4.45;;
8425;SDS011;4250;50.006;8.286;2022-07-29T15:19:36;10.13;;;4.60;;
8425;SDS011;4250;50.006;8.286;2022-07-29T15:22:02;8.70;;;4.05;;
8425;SDS011;4250;50.006;8.286;2022-07-29T15:24:29;8.63;;;4.50;;
8425;SDS011;4250;50.006;8.286;2022-07-29T15:26:54;10.43;;;5.30;;
8425;SDS011;4250;50.006;8.286;2022-07-29T15:29:20;8.80;;;7.03;;
8425;SDS011;4250;50.006;8.286;2022-07-29T15:31:46;5.70;;;4.07;;
8425;SDS011;4250;50.006;8.286;2022-07-29T15:34:11;16.75;;;5.75;;
8425;SDS011;4250;50.006;8.286;2022-07-29T15:36:36;5.40;;;4.20;;
8425;SDS011;4250;50.006;8.286;2022-07-29T15:39:02;7.35;;;4.57;;
8425;SDS011;4250;50.006;8.286;2022-07-29T15:41:27;6.38;;;4.60;;
8425;SDS011;4250;50.006;8.286;2022-07-29T15:43:53;6.55;;;4.18;;
8425;SDS011;4250;50.006;8.286;2022-07-29T15:46:18;3.95;;;3.58;;
8425;SDS011;4250;50.006;8.286;2022-07-29T15:49:04;5.40;;;3.58;;
8425;SDS011;4250;50.006;8.286;2022-07-29T15:51:30;4.60;;;3.70;;
8425;SDS011;4250;50.006;8.286;2022-07-29T15:53:55;4.80;;;3.25;;
8425;SDS011;4250;50.006;8.286;2022-07-29T15:56:21;4.65;;;3.40;;
8425;SDS011;4250;50.006;8.286;2022-07-29T15:58:47;5.57;;;3.30;;
8425;SDS011;4250;50.006;8.286;2022-07-29T16:01:12;4.60;;;3.47;;
8425;SDS011;4250;50.006;8.286;2022-07-29T16:03:37;4.25;;;2.95;;
8425;SDS011;4250;50.006;8.286;2022-07-29T16:06:03;4.57;;;2.85;;
8425;SDS011;4250;50.006;8.286;2022-07-29T16:08:28;4.07;;;2.42;;
8425;SDS011;4250;50.006;8.286;2022-07-29T16:10:54;5.70;;;3.78;;